Mission Rafael, California
Current Conditions -  °F | °C
As of 2:55 PM on Sunday 21 Dec 2014 (Local Time) from KDVO Reporting Station
Clear Clear  
Wind Chill: 64°   Ceiling: Unl
Heat Index: 64°   Visibility: 10mi
Dew Point: 59°   Wind: 7mph
Humidity: 83%   Direction: 310°NW
Pressure: 30.26"   Gusts: NA
Location:  37.9585°N, 122.506°W
Report Text: KDVO 212255Z AUTO 31006KT 10SM CLR 18/15 A3026 RMK AO2
Loading
Personal Weather Stations






























Interactive Weather Map New forecast layout! Learn more

10-Day Weather Forecast

Advertisements
Track Severe Weather on mobile